createdAt,value
2023-04-01T00:01:33.519Z,99096.34
2023-04-01T00:04:02.866Z,99098.81
2023-04-01T00:06:29.564Z,99092.53
2023-04-01T00:08:56.136Z,99089.69
2023-04-01T00:11:27.533Z,99094.13
2023-04-01T00:13:54.694Z,99087.44
2023-04-01T00:16:22.786Z,99089.09
2023-04-01T00:18:52.391Z,99089.50
2023-04-01T00:21:22.769Z,99087.28
2023-04-01T00:23:50.984Z,99095.94
2023-04-01T00:26:20.088Z,99084.81
2023-04-01T00:28:47.060Z,99088.47
2023-04-01T00:31:18.456Z,99084.22
2023-04-01T00:33:47.512Z,99094.09
2023-04-01T00:36:19.651Z,99085.03
2023-04-01T00:38:47.807Z,99087.25
2023-04-01T00:41:16.922Z,99094.53
2023-04-01T00:43:48.586Z,99097.38
2023-04-01T00:46:17.391Z,99095.31
2023-04-01T00:48:51.985Z,99097.19
2023-04-01T00:51:22.904Z,99098.81
2023-04-01T00:53:54.768Z,99090.06
2023-04-01T00:56:27.872Z,99097.97
2023-04-01T00:59:05.172Z,99087.03
2023-04-01T01:01:32.764Z,99088.69
2023-04-01T01:03:59.183Z,99089.28
2023-04-01T01:06:34.393Z,99086.84
2023-04-01T01:09:08.613Z,99083.00
2023-04-01T01:11:44.116Z,99076.09
2023-04-01T01:14:20.996Z,99070.66
2023-04-01T01:16:57.573Z,99073.47
2023-04-01T01:19:49.408Z,99074.28
2023-04-01T01:22:46.842Z,99062.13
2023-04-01T01:25:33.060Z,99063.13
2023-04-01T01:28:18.131Z,99052.22
2023-04-01T01:31:01.554Z,99048.38
2023-04-01T01:33:43.552Z,99055.47
2023-04-01T01:36:14.766Z,99051.63
2023-04-01T01:38:41.369Z,99053.03
2023-04-01T01:41:09.937Z,99057.69
2023-04-01T01:43:43.082Z,99045.13
2023-04-01T01:46:17.640Z,99047.16
2023-04-01T01:48:46.486Z,99048.34
2023-04-01T01:51:12.887Z,99044.50
2023-04-01T01:53:39.524Z,99047.53
2023-04-01T01:56:10.815Z,99046.31
2023-04-01T01:59:01.445Z,99044.91
2023-04-01T02:01:33.329Z,99038.81
2023-04-01T02:04:03.427Z,99041.47
2023-04-01T02:06:35.767Z,99047.34
2023-04-01T02:09:04.853Z,99036.81
2023-04-01T02:11:37.149Z,99044.28
2023-04-01T02:14:12.082Z,99045.06
2023-04-01T02:16:50.713Z,99050.56
2023-04-01T02:19:23.410Z,99042.69
2023-04-01T02:22:14.440Z,99043.69
2023-04-01T02:24:43.079Z,99041.44
2023-04-01T02:27:11.538Z,99043.25
2023-04-01T02:29:40.810Z,99043.91
2023-04-01T02:32:08.472Z,99054.41
2023-04-01T02:34:35.177Z,99046.91
2023-04-01T02:37:01.972Z,99049.53
2023-04-01T02:39:28.605Z,99051.97
2023-04-01T02:41:55.170Z,99040.22
2023-04-01T02:44:21.668Z,99050.78
2023-04-01T02:46:48.164Z,99046.13
2023-04-01T02:49:14.764Z,99053.19
2023-04-01T02:51:41.105Z,99048.53
2023-04-01T02:54:09.925Z,99052.75
2023-04-01T02:56:38.703Z,99038.22
2023-04-01T02:59:05.121Z,99046.63
2023-04-01T03:01:31.750Z,99049.75
2023-04-01T03:03:58.263Z,99045.72
2023-04-01T03:06:24.704Z,99048.78
2023-04-01T03:08:53.808Z,99046.69
2023-04-01T03:11:22.909Z,99053.81
2023-04-01T03:13:49.760Z,99047.75
2023-04-01T03:16:16.381Z,99051.16
2023-04-01T03:18:42.959Z,99049.13
2023-04-01T03:21:22.156Z,99047.09
2023-04-01T03:23:48.772Z,99047.53
2023-04-01T03:26:15.883Z,99047.09
2023-04-01T03:28:42.514Z,99047.31
2023-04-01T03:31:09.179Z,99042.25
2023-04-01T03:33:35.569Z,99044.47
2023-04-01T03:36:02.160Z,99048.34
2023-04-01T03:38:28.709Z,99040.63
2023-04-01T03:40:55.339Z,99048.34
2023-04-01T03:43:22.356Z,99039.41
2023-04-01T03:45:51.012Z,99047.91
2023-04-01T03:48:18.241Z,99050.97
2023-04-01T03:50:45.294Z,99043.25
2023-04-01T03:53:12.024Z,99050.97
2023-04-01T03:55:38.892Z,99053.56
2023-04-01T03:58:07.388Z,99053.56
2023-04-01T04:00:34.168Z,99065.50
2023-04-01T04:03:00.789Z,99067.72
2023-04-01T04:05:28.080Z,99060.81
2023-04-01T04:07:54.843Z,99056.16
2023-04-01T04:10:23.335Z,99052.50
2023-04-01T04:12:50.873Z,99049.34
2023-04-01T04:15:17.284Z,99053.13
2023-04-01T04:17:51.698Z,99054.44
2023-04-01T04:20:18.145Z,99053.41
2023-04-01T04:22:46.972Z,99057.91
2023-04-01T04:25:13.415Z,99062.34
2023-04-01T04:27:40.237Z,99061.97
2023-04-01T04:30:08.260Z,99062.56
2023-04-01T04:32:38.339Z,99052.66
2023-04-01T04:35:07.314Z,99062.19
2023-04-01T04:37:33.668Z,99063.63
2023-04-01T04:40:00.104Z,99054.50
2023-04-01T04:42:26.496Z,99055.75
2023-04-01T04:44:52.837Z,99045.03
2023-04-01T04:47:21.919Z,99053.53
2023-04-01T04:49:48.380Z,99044.81
2023-04-01T04:52:17.821Z,99050.50
2023-04-01T04:54:44.417Z,99054.94
2023-04-01T04:57:10.935Z,99048.69
2023-04-01T04:59:38.103Z,99042.22
2023-04-01T05:02:04.877Z,99041.59
2023-04-01T05:04:35.524Z,99030.28
2023-04-01T05:07:01.897Z,99046.47
2023-04-01T05:09:28.269Z,99033.91
2023-04-01T05:11:54.601Z,99041.38
2023-04-01T05:14:21.090Z,99042.00
2023-04-01T05:16:47.507Z,99037.34
2023-04-01T05:19:14.053Z,99040.00
2023-04-01T05:21:40.379Z,99040.41
2023-04-01T05:24:10.412Z,99042.19
2023-04-01T05:26:39.113Z,99038.56
2023-04-01T05:29:06.333Z,99039.78
2023-04-01T05:31:32.988Z,99041.78
2023-04-01T05:33:59.451Z,99039.78
2023-04-01T05:36:25.913Z,99045.44
2023-04-01T05:38:56.020Z,99045.44
2023-04-01T05:41:22.459Z,99040.59
2023-04-01T05:43:49.005Z,99042.19
2023-04-01T05:46:17.977Z,99033.69
2023-04-01T05:48:46.790Z,99030.69
2023-04-01T05:51:17.121Z,99038.16
2023-04-01T05:53:43.993Z,99038.16
2023-04-01T05:56:10.545Z,99026.00
2023-04-01T05:58:38.263Z,99028.63
2023-04-01T06:01:14.123Z,99032.09
2023-04-01T06:03:43.044Z,99026.00
2023-04-01T06:06:26.686Z,99030.41
2023-04-01T06:08:54.486Z,99023.94
2023-04-01T06:11:45.597Z,99018.13
2023-04-01T06:14:34.427Z,99029.38
2023-04-01T06:17:07.147Z,99024.91
2023-04-01T06:19:45.856Z,99020.44
2023-04-01T06:22:40.199Z,99016.34
2023-04-01T06:25:37.782Z,99018.97
2023-04-01T06:28:22.411Z,99022.44
2023-04-01T06:31:02.086Z,99025.88
2023-04-01T06:33:30.977Z,99028.34
2023-04-01T06:36:12.432Z,99017.22
2023-04-01T06:39:23.881Z,99029.53
2023-04-01T06:42:46.244Z,99027.94
2023-04-01T06:45:48.475Z,99030.16
2023-04-01T06:48:40.242Z,99024.28
2023-04-01T06:51:23.573Z,99018.00
2023-04-01T06:53:59.829Z,99022.88
2023-04-01T06:56:29.628Z,99028.97
2023-04-01T06:59:18.964Z,99024.94
2023-04-01T07:02:11.509Z,99022.06
2023-04-01T07:04:59.024Z,99029.63
2023-04-01T07:07:36.195Z,99021.97
2023-04-01T07:10:14.674Z,99029.63
2023-04-01T07:12:47.317Z,99021.94
2023-04-01T07:15:32.499Z,99025.59
2023-04-01T07:18:18.665Z,99032.03
2023-04-01T07:20:49.816Z,99027.78
2023-04-01T07:23:23.556Z,99028.41
2023-04-01T07:25:56.847Z,99036.91
2023-04-01T07:28:23.326Z,99043.19
2023-04-01T07:30:58.730Z,99036.31
2023-04-01T07:33:51.120Z,99046.63
2023-04-01T07:36:39.047Z,99041.78
2023-04-01T07:39:14.434Z,99041.19
2023-04-01T07:42:06.899Z,99043.81
2023-04-01T07:45:09.880Z,99044.81
2023-04-01T07:47:54.224Z,99045.75
2023-04-01T07:50:29.743Z,99046.38
2023-04-01T07:53:17.611Z,99041.09
2023-04-01T07:56:09.414Z,99040.94
2023-04-01T07:58:39.983Z,99046.00
2023-04-01T08:01:31.456Z,99040.09
2023-04-01T08:04:07.172Z,99042.53
2023-04-01T08:06:41.271Z,99042.50
2023-04-01T08:09:22.736Z,99050.59
2023-04-01T08:11:52.344Z,99043.91
2023-04-01T08:14:27.467Z,99044.44
2023-04-01T08:17:20.288Z,99045.50
2023-04-01T08:20:18.344Z,99051.88
2023-04-01T08:23:25.103Z,99051.69
2023-04-01T08:26:05.614Z,99041.91
2023-04-01T08:29:01.137Z,99043.31
2023-04-01T08:31:52.463Z,99049.09
2023-04-01T08:34:27.160Z,99049.38
2023-04-01T08:37:01.919Z,99051.91
2023-04-01T08:39:36.943Z,99057.78
2023-04-01T08:42:31.110Z,99042.75
2023-04-01T08:45:03.510Z,99048.09
2023-04-01T08:47:59.155Z,99048.38
2023-04-01T08:50:37.468Z,99054.44
2023-04-01T08:53:21.778Z,99052.03
2023-04-01T08:56:04.298Z,99061.41
2023-04-01T08:59:06.833Z,99059.50
2023-04-01T09:01:59.400Z,99061.50
2023-04-01T09:04:43.480Z,99063.34
2023-04-01T09:07:31.443Z,99065.53
2023-04-01T09:10:07.080Z,99073.63
2023-04-01T09:12:58.988Z,99073.00
2023-04-01T09:15:34.908Z,99068.72
2023-04-01T09:18:01.640Z,99067.88
2023-04-01T09:20:59.209Z,99072.19
2023-04-01T09:23:34.745Z,99077.28
2023-04-01T09:26:13.526Z,99072.72
2023-04-01T09:28:51.956Z,99069.44
2023-04-01T09:31:30.747Z,99068.28
2023-04-01T09:34:03.039Z,99070.75
2023-04-01T09:36:32.170Z,99076.09
2023-04-01T09:39:36.862Z,99069.47
2023-04-01T09:42:27.781Z,99081.59
2023-04-01T09:45:35.649Z,99085.66
2023-04-01T09:48:14.385Z,99080.19
2023-04-01T09:51:02.765Z,99076.81
2023-04-01T09:53:31.764Z,99087.50
2023-04-01T09:56:21.018Z,99091.13
2023-04-01T09:59:09.714Z,99093.94
2023-04-01T10:02:22.917Z,99086.97
2023-04-01T10:05:27.103Z,99084.94
2023-04-01T10:08:17.803Z,99091.00
2023-04-01T10:11:29.856Z,99089.41
2023-04-01T10:14:30.378Z,99097.47
2023-04-01T10:17:09.533Z,99099.56
2023-04-01T10:19:41.867Z,99096.19
2023-04-01T10:22:27.209Z,99101.16
2023-04-01T10:25:31.815Z,99097.50
2023-04-01T10:28:31.316Z,99098.47
2023-04-01T10:31:16.122Z,99100.22
2023-04-01T10:34:03.838Z,99101.44
2023-04-01T10:36:47.614Z,99102.94
2023-04-01T10:39:36.402Z,99098.66
2023-04-01T10:42:40.408Z,99102.00
2023-04-01T10:45:46.953Z,99095.31
2023-04-01T10:48:24.446Z,99110.72
2023-04-01T10:51:10.327Z,99099.03
2023-04-01T10:53:52.757Z,99095.53
2023-04-01T10:56:26.489Z,99097.19
2023-04-01T10:59:08.987Z,99099.59
2023-04-01T11:02:13.433Z,99104.59
2023-04-01T11:05:36.988Z,99097.44
2023-04-01T11:08:41.261Z,99108.13
2023-04-01T11:11:55.961Z,99118.75
2023-04-01T11:14:28.699Z,99120.53
2023-04-01T11:16:55.259Z,99119.69
2023-04-01T11:19:49.037Z,99117.28
2023-04-01T11:22:30.408Z,99119.69
2023-04-01T11:25:22.750Z,99123.94
2023-04-01T11:28:03.268Z,99116.81
2023-04-01T11:30:35.328Z,99124.50
2023-04-01T11:33:27.957Z,99122.66
2023-04-01T11:36:33.480Z,99123.88
2023-04-01T11:39:25.162Z,99125.16
2023-04-01T11:42:10.537Z,99126.94
2023-04-01T11:44:46.088Z,99122.06
2023-04-01T11:47:41.268Z,99129.16
2023-04-01T11:50:19.122Z,99131.94
2023-04-01T11:53:02.701Z,99131.38
2023-04-01T11:55:36.737Z,99129.53
2023-04-01T11:58:33.673Z,99136.56
2023-04-01T12:01:20.759Z,99136.97
2023-04-01T12:04:13.902Z,99139.75
2023-04-01T12:06:46.237Z,99133.03
2023-04-01T12:09:16.200Z,99133.41
2023-04-01T12:11:42.544Z,99133.81
2023-04-01T12:14:20.577Z,99152.28
2023-04-01T12:16:56.326Z,99138.06
2023-04-01T12:19:49.328Z,99137.22
2023-04-01T12:22:33.773Z,99139.19
2023-04-01T12:25:12.350Z,99148.44
2023-04-01T12:27:51.929Z,99144.03
2023-04-01T12:30:38.602Z,99156.66
2023-04-01T12:33:23.477Z,99140.22
2023-04-01T12:36:20.253Z,99147.91
2023-04-01T12:39:24.188Z,99149.78
2023-04-01T12:42:11.382Z,99145.75
2023-04-01T12:44:50.602Z,99147.41
2023-04-01T12:47:35.928Z,99145.97
2023-04-01T12:50:27.379Z,99147.28
2023-04-01T12:53:19.640Z,99140.88
2023-04-01T12:55:51.508Z,99151.84
2023-04-01T12:58:44.389Z,99153.84
2023-04-01T13:01:22.454Z,99159.53
2023-04-01T13:03:57.976Z,99156.47
2023-04-01T13:06:53.563Z,99157.16
2023-04-01T13:09:34.183Z,99157.72
2023-04-01T13:12:37.430Z,99167.25
2023-04-01T13:15:14.150Z,99167.69
2023-04-01T13:18:13.140Z,99171.34
2023-04-01T13:21:08.175Z,99169.50
2023-04-01T13:24:16.670Z,99169.91
2023-04-01T13:27:09.180Z,99175.25
2023-04-01T13:29:42.036Z,99175.38
2023-04-01T13:32:22.217Z,99176.25
2023-04-01T13:35:08.185Z,99186.91
2023-04-01T13:37:53.457Z,99188.94
2023-04-01T13:40:46.771Z,99185.84
2023-04-01T13:43:30.567Z,99191.66
2023-04-01T13:46:28.920Z,99193.31
2023-04-01T13:49:07.340Z,99193.81
2023-04-01T13:52:09.719Z,99195.97
2023-04-01T13:55:03.713Z,99195.91
2023-04-01T13:57:53.694Z,99196.63
2023-04-01T14:00:41.917Z,99205.16
2023-04-01T14:03:32.647Z,99207.75
2023-04-01T14:06:24.263Z,99214.28
2023-04-01T14:09:12.321Z,99211.00
2023-04-01T14:12:00.375Z,99200.72
2023-04-01T14:15:08.309Z,99213.47
2023-04-01T14:18:13.922Z,99212.28
2023-04-01T14:21:04.881Z,99205.81
2023-04-01T14:23:37.064Z,99212.16
2023-04-01T14:26:22.122Z,99213.09
2023-04-01T14:29:25.313Z,99216.88
2023-04-01T14:31:51.830Z,99219.25
2023-04-01T14:34:26.346Z,99226.34
2023-04-01T14:37:30.462Z,99222.31
2023-04-01T14:40:15.778Z,99220.16
2023-04-01T14:43:11.197Z,99225.22
2023-04-01T14:45:45.895Z,99233.59
2023-04-01T14:48:37.333Z,99241.53
2023-04-01T14:51:18.209Z,99235.25
2023-04-01T14:54:03.109Z,99240.28
2023-04-01T14:57:08.185Z,99240.22
2023-04-01T14:59:40.922Z,99244.84
2023-04-01T15:02:28.168Z,99240.09
2023-04-01T15:05:13.293Z,99253.50
2023-04-01T15:07:58.776Z,99246.63
2023-04-01T15:10:40.965Z,99250.63
2023-04-01T15:13:15.715Z,99240.28
2023-04-01T15:15:57.352Z,99244.84
2023-04-01T15:18:50.947Z,99254.06
2023-04-01T15:21:28.844Z,99254.72
2023-04-01T15:24:25.318Z,99256.13
2023-04-01T15:26:51.622Z,99260.25
2023-04-01T15:29:55.438Z,99249.28
2023-04-01T15:32:53.090Z,99255.13
2023-04-01T15:36:01.242Z,99254.66
2023-04-01T15:38:52.868Z,99256.13
2023-04-01T15:41:29.790Z,99256.34
2023-04-01T15:43:56.317Z,99259.16
2023-04-01T15:46:54.193Z,99261.59
2023-04-01T15:50:12.150Z,99257.13
2023-04-01T15:52:44.260Z,99267.06
2023-04-01T15:55:21.977Z,99270.13
2023-04-01T15:58:03.283Z,99277.03
2023-04-01T16:00:33.837Z,99268.69
2023-04-01T16:03:29.859Z,99279.66
2023-04-01T16:06:03.069Z,99277.97
2023-04-01T16:09:09.695Z,99268.91
2023-04-01T16:11:55.665Z,99270.72
2023-04-01T16:14:50.792Z,99278.38
2023-04-01T16:17:32.438Z,99283.00
2023-04-01T16:20:19.080Z,99290.13
2023-04-01T16:22:54.310Z,99292.56
2023-04-01T16:26:00.579Z,99301.53
2023-04-01T16:28:51.676Z,99295.47
2023-04-01T16:31:58.257Z,99299.19
2023-04-01T16:34:42.655Z,99304.44
2023-04-01T16:37:23.779Z,99302.22
2023-04-01T16:40:17.043Z,99308.56
2023-04-01T16:43:08.502Z,99309.13
2023-04-01T16:45:39.170Z,99312.16
2023-04-01T16:48:17.336Z,99315.22
2023-04-01T16:50:48.562Z,99320.94
2023-04-01T16:53:16.640Z,99321.13
2023-04-01T16:56:05.894Z,99324.16
2023-04-01T16:59:03.347Z,99332.88
2023-04-01T17:01:48.438Z,99344.25
2023-04-01T17:04:30.342Z,99341.84
2023-04-01T17:07:08.709Z,99341.03
2023-04-01T17:09:56.043Z,99344.88
2023-04-01T17:12:39.646Z,99351.59
2023-04-01T17:15:23.315Z,99357.31
2023-04-01T17:18:07.447Z,99353.88
2023-04-01T17:21:12.633Z,99353.06
2023-04-01T17:23:39.077Z,99356.28
2023-04-01T17:26:22.658Z,99364.19
2023-04-01T17:28:57.852Z,99359.75
2023-04-01T17:31:27.495Z,99362.97
2023-04-01T17:34:24.415Z,99374.13
2023-04-01T17:37:11.210Z,99373.94
2023-04-01T17:40:08.827Z,99380.63
2023-04-01T17:42:44.000Z,99384.25
2023-04-01T17:45:10.452Z,99381.44
2023-04-01T17:48:09.190Z,99385.72
2023-04-01T17:50:35.943Z,99388.56
2023-04-01T17:53:43.212Z,99394.22
2023-04-01T17:56:18.685Z,99395.63
2023-04-01T17:59:04.269Z,99393.81
2023-04-01T18:01:56.887Z,99405.19
2023-04-01T18:04:32.380Z,99408.63
2023-04-01T18:07:19.952Z,99406.38
2023-04-01T18:09:58.334Z,99413.66
2023-04-01T18:12:33.807Z,99415.31
2023-04-01T18:15:12.650Z,99414.69
2023-04-01T18:17:46.926Z,99422.78
2023-04-01T18:20:25.576Z,99428.66
2023-04-01T18:22:57.818Z,99429.06
2023-04-01T18:25:45.199Z,99435.94
2023-04-01T18:28:42.568Z,99438.78
2023-04-01T18:31:27.766Z,99441.41
2023-04-01T18:33:54.311Z,99450.94
2023-04-01T18:36:34.245Z,99449.69
2023-04-01T18:39:38.016Z,99451.63
2023-04-01T18:42:10.006Z,99458.91
2023-04-01T18:44:57.328Z,99463.97
2023-04-01T18:47:56.080Z,99471.03
2023-04-01T18:50:37.992Z,99474.28
2023-04-01T18:53:37.520Z,99485.78
2023-04-01T18:56:05.826Z,99493.22
2023-04-01T18:58:37.426Z,99492.56
2023-04-01T19:01:23.026Z,99495.16
2023-04-01T19:04:06.281Z,99491.31
2023-04-01T19:06:59.715Z,99497.25
2023-04-01T19:09:44.053Z,99504.97
2023-04-01T19:12:16.492Z,99506.72
2023-04-01T19:14:54.358Z,99502.50
2023-04-01T19:17:53.816Z,99510.00
2023-04-01T19:20:31.133Z,99504.72
2023-04-01T19:23:34.899Z,99513.19
2023-04-01T19:26:06.111Z,99504.97
2023-04-01T19:29:00.195Z,99509.00
2023-04-01T19:31:46.266Z,99517.56
2023-04-01T19:34:25.836Z,99508.63
2023-04-01T19:37:00.055Z,99503.47
2023-04-01T19:40:08.002Z,99511.66
2023-04-01T19:42:42.880Z,99512.16
2023-04-01T19:45:15.046Z,99521.69
2023-04-01T19:48:03.026Z,99525.63
2023-04-01T19:50:41.302Z,99530.53
2023-04-01T19:53:21.929Z,99531.69
2023-04-01T19:55:59.970Z,99533.34
2023-04-01T19:58:34.741Z,99539.41
2023-04-01T20:01:04.090Z,99538.97
2023-04-01T20:03:35.086Z,99538.97
2023-04-01T20:06:14.528Z,99544.31
2023-04-01T20:09:05.577Z,99541.75
2023-04-01T20:11:59.396Z,99547.19
2023-04-01T20:14:44.688Z,99553.00
2023-04-01T20:17:17.825Z,99548.34
2023-04-01T20:20:11.007Z,99551.59
2023-04-01T20:22:46.557Z,99554.41
2023-04-01T20:25:22.527Z,99556.25
2023-04-01T20:27:55.921Z,99558.25
2023-04-01T20:30:29.208Z,99562.09
2023-04-01T20:33:27.560Z,99560.84
2023-04-01T20:36:16.155Z,99557.78
2023-04-01T20:39:18.806Z,99566.22
2023-04-01T20:42:03.886Z,99576.91
2023-04-01T20:45:17.372Z,99580.53
2023-04-01T20:47:52.833Z,99589.78
2023-04-01T20:50:35.785Z,99582.72
2023-04-01T20:53:12.368Z,99584.16
2023-04-01T20:55:59.855Z,99593.50
2023-04-01T20:58:47.861Z,99593.16
2023-04-01T21:01:36.557Z,99594.22
2023-04-01T21:04:31.570Z,99585.69
2023-04-01T21:07:51.337Z,99590.88
2023-04-01T21:10:32.329Z,99598.13
2023-04-01T21:13:17.714Z,99593.31
2023-04-01T21:16:12.992Z,99600.91
2023-04-01T21:18:46.168Z,99602.28
2023-04-01T21:21:31.016Z,99602.53
2023-04-01T21:24:44.526Z,99603.00
2023-04-01T21:27:37.788Z,99604.97
2023-04-01T21:30:41.940Z,99617.03
2023-04-01T21:33:32.849Z,99620.53
2023-04-01T21:36:19.700Z,99615.69
2023-04-01T21:38:55.074Z,99617.66
2023-04-01T21:41:32.324Z,99624.53
2023-04-01T21:44:41.620Z,99624.34
2023-04-01T21:47:20.113Z,99629.63
2023-04-01T21:50:31.058Z,99634.47
2023-04-01T21:53:03.100Z,99633.59
2023-04-01T21:55:32.900Z,99638.78
2023-04-01T21:58:21.417Z,99644.13
2023-04-01T22:01:09.610Z,99644.56
2023-04-01T22:03:59.467Z,99645.16
2023-04-01T22:06:35.673Z,99648.53
2023-04-01T22:09:22.155Z,99648.69
2023-04-01T22:12:05.583Z,99648.44
2023-04-01T22:14:44.635Z,99653.94
2023-04-01T22:17:39.657Z,99649.38
2023-04-01T22:20:16.161Z,99661.97
2023-04-01T22:23:16.000Z,99660.97
2023-04-01T22:25:51.732Z,99667.69
2023-04-01T22:28:28.938Z,99668.06
2023-04-01T22:31:04.178Z,99662.97
2023-04-01T22:33:51.657Z,99670.50
2023-04-01T22:36:49.218Z,99678.97
2023-04-01T22:39:21.877Z,99672.09
2023-04-01T22:42:14.022Z,99671.00
2023-04-01T22:45:02.477Z,99676.88
2023-04-01T22:47:58.294Z,99674.19
2023-04-01T22:50:38.621Z,99683.94
2023-04-01T22:53:44.668Z,99679.38
2023-04-01T22:56:19.117Z,99684.44
2023-04-01T22:59:01.329Z,99683.16
2023-04-01T23:01:34.173Z,99686.28
2023-04-01T23:04:04.197Z,99697.06
2023-04-01T23:06:42.296Z,99685.94
2023-04-01T23:09:20.644Z,99704.31
2023-04-01T23:12:01.514Z,99697.31
2023-04-01T23:14:47.343Z,99699.72
2023-04-01T23:17:31.798Z,99704.56
2023-04-01T23:20:32.022Z,99711.13
2023-04-01T23:23:42.603Z,99712.13
2023-04-01T23:26:14.300Z,99721.06
2023-04-01T23:28:48.536Z,99728.44
2023-04-01T23:31:32.274Z,99729.59
2023-04-01T23:34:21.662Z,99734.22
2023-04-01T23:36:51.686Z,99731.53
2023-04-01T23:39:31.837Z,99736.94
2023-04-01T23:42:05.828Z,99737.97
2023-04-01T23:44:34.786Z,99738.41
2023-04-01T23:47:03.702Z,99744.16
2023-04-01T23:49:56.422Z,99750.66
2023-04-01T23:52:33.919Z,99750.38
2023-04-01T23:55:22.815Z,99751.97
2023-04-01T23:58:08.833Z,99755.75
